aviador You're here:

SAWG Decoded Metar

RIO GALLEGOS in ARGENTINA
Report Time2018-05-28 05:00:00
UTC Time2018-05-28 05:16:56
Flight Rules vfr VFR
Wind140° at 04 kt
W.Decomp.*RWY 07: 2.1 kt HW 3.4 kt RCW
W.Rank140° ranks 14
Current wind is below 140° avg. (6.0)
Visibility9999 m
Phenomena:N/A
Clouds:Scattered 006 Hf
Overcast 060 Hf
Expected CloudBase > 1,200 ft AGL from Temp-Dew spread
Ceiling6,000 ft
Temp01°C (ISA -14)
Dew Point-2°C (81% RH)
AAT-2.7°C
QNH0996 hPa
Density Alt-974 ft
Elevation62 ft
Report Wrong Elevation
Raw Report
SAWG 280500Z 14004KT 9999 SCT006 OVC060 01/M02 Q0996=

Extra information for SAWG:More info

Metar Taf Metar & Taf Last 4 Metars F.Rules Stats Wind Profile Meteogram Temp Stats Airport Information Weather charts Add Link Nearby VenuesMetar ALERT Operation Metar Decoded Social comments